Time;durP1;ratioP1;P1;durP2;ratioP2;P2;SDS_P1;SDS_P2;PMS_P1;PMS_P2;Temp;Humidity;BMP_temperature;BMP_pressure;BME280_temperature;BME280_humidity;BME280_pressure;Samples;Min_cycle;Max_cycle;Signal;HPM_P1;HPM_P2
2021/01/30 00:00:23;;;;;;;37.95;12.70;;;20.20;72.70;;;;;;4930332;28;102371;-87
2021/01/30 00:02:49;;;;;;;29.00;10.88;;;20.20;72.90;;;;;;4921343;28;101026;-87
2021/01/30 00:06:12;;;;;;;;;;;;;;;;;;;;;
2021/01/30 00:08:38;;;;;;;34.97;11.27;;;20.20;72.90;;;;;;4933344;28;131519;-87
2021/01/30 00:14:32;;;;;;;34.28;12.20;;;20.20;73.40;;;;;;4966305;23;101383;-82
2021/01/30 00:17:10;;;;;;;32.53;11.48;;;20.20;73.50;;;;;;4923757;28;100987;-82
2021/01/30 00:19:42;;;;;;;31.98;11.13;;;20.20;73.40;;;;;;4941088;28;104072;-81
2021/01/30 00:22:30;;;;;;;40.10;9.98;;;20.20;73.40;;;;;;4924132;28;103255;-82
2021/01/30 00:25:01;;;;;;;26.80;10.70;;;20.30;73.40;;;;;;4925603;28;101171;-82
2021/01/30 00:27:26;;;;;;;31.40;10.40;;;20.20;73.30;;;;;;4955905;28;101220;-82
2021/01/30 00:29:57;;;;;;;27.73;10.38;;;20.30;73.50;;;;;;4939934;28;102096;-82
2021/01/30 00:32:23;;;;;;;30.80;10.68;;;20.20;73.30;;;;;;4969882;28;101369;-82
2021/01/30 00:34:49;;;;;;;30.23;10.35;;;20.20;73.30;;;;;;4965596;28;100437;-82
2021/01/30 00:37:51;;;;;;;;;;;;;;;;;;;;;
2021/01/30 00:40:20;;;;;;;26.08;10.02;;;20.20;73.30;;;;;;4982238;28;129553;-82
2021/01/30 00:42:49;;;;;;;24.52;8.90;;;20.20;73.30;;;;;;4967191;28;100743;-82
2021/01/30 00:45:37;;;;;;;23.38;8.60;;;20.20;73.20;;;;;;5019436;23;101222;-82
2021/01/30 00:48:03;;;;;;;26.20;9.00;;;20.20;73.30;;;;;;4968107;28;100173;-81
2021/01/30 00:50:33;;;;;;;24.23;9.07;;;20.20;73.30;;;;;;4939497;28;103377;-83
2021/01/30 01:11:02;;;;;;;23.92;8.82;;;20.20;73.40;;;;;;4981718;28;101076;-88
2021/01/30 01:20:18;;;;;;;19.45;7.75;;;20.20;72.90;;;;;;4883139;28;100994;-88
2021/01/30 01:29:48;;;;;;;20.38;7.53;;;20.20;73.00;;;;;;4924882;28;100992;-88
2021/01/30 01:32:50;;;;;;;21.05;7.30;;;20.10;72.60;;;;;;4943698;28;101329;-87
2021/01/30 01:35:18;;;;;;;15.95;7.50;;;20.10;72.40;;;;;;4931627;28;101546;-87
2021/01/30 01:37:49;;;;;;;22.90;7.63;;;20.20;72.50;;;;;;4940707;28;100863;-87
2021/01/30 01:40:20;;;;;;;18.55;7.28;;;20.10;72.70;;;;;;4952910;28;101083;-87
2021/01/30 01:43:13;;;;;;;;;;;;;;;;;;;;;
2021/01/30 01:46:12;;;;;;;22.30;7.93;;;20.10;73.00;;;;;;4929674;28;112261;-87
2021/01/30 01:49:00;;;;;;;21.27;7.47;;;20.10;72.80;;;;;;4956594;28;101071;-87
2021/01/30 01:52:04;;;;;;;20.15;7.22;;;20.10;72.70;;;;;;4966201;28;103489;-87
2021/01/30 01:55:16;;;;;;;17.67;6.85;;;20.10;72.80;;;;;;4962418;28;101124;-88
2021/01/30 01:58:40;;;;;;;26.90;7.43;;;20.10;72.80;;;;;;4950396;28;101040;-88
2021/01/30 02:01:51;;;;;;;16.33;6.60;;;20.10;72.70;;;;;;4952843;28;101100;-86
2021/01/30 02:04:34;;;;;;;19.05;6.65;;;20.10;72.70;;;;;;4941601;28;101537;-86
2021/01/30 02:07:00;;;;;;;17.75;7.00;;;20.10;72.60;;;;;;4941777;28;101288;-87
2021/01/30 02:09:26;;;;;;;19.90;6.20;;;20.10;72.50;;;;;;4940123;28;101085;-87
2021/01/30 02:12:17;;;;;;;16.60;6.22;;;20.00;72.40;;;;;;4934365;28;101559;-87
2021/01/30 02:14:48;;;;;;;16.98;6.68;;;20.10;72.50;;;;;;4934434;28;102708;-87
2021/01/30 02:17:47;;;;;;;;;;;;;;;;;;;;;
2021/01/30 02:31:16;;;;;;;19.73;6.03;;;20.10;72.60;;;;;;4940705;28;101202;-89
2021/01/30 02:34:24;;;;;;;22.90;7.38;;;20.00;72.70;;;;;;4917671;28;100967;-88
2021/01/30 02:37:12;;;;;;;;;;;;;;;;;;;;;
2021/01/30 02:39:54;;;;;;;25.45;7.50;;;20.00;73.20;;;;;;4960293;28;131173;-89
2021/01/30 02:46:12;;;;;;;33.63;8.18;;;20.00;73.10;;;;;;4966021;28;100907;-87
2021/01/30 02:49:08;;;;;;;24.88;7.00;;;20.10;73.00;;;;;;4951103;28;101318;-89
2021/01/30 02:52:43;;;;;;;19.30;6.78;;;20.00;73.10;;;;;;4943440;28;101623;-89
2021/01/30 02:55:41;;;;;;;22.77;7.32;;;20.00;73.00;;;;;;4929642;28;101489;-89
2021/01/30 02:58:30;;;;;;;32.03;7.03;;;20.00;73.00;;;;;;4917825;28;100867;-89
2021/01/30 03:01:30;;;;;;;;;;;;;;;;;;;;;
2021/01/30 03:04:46;;;;;;;33.95;8.60;;;20.00;73.50;;;;;;4957821;28;130153;-89
2021/01/30 03:08:03;;;;;;;29.70;7.85;;;20.00;73.60;;;;;;4972937;28;101381;-89
2021/01/30 03:11:01;;;;;;;;;;;;;;;;;;;;;
2021/01/30 03:18:08;;;;;;;;;;;;;;;;;;;;;
2021/01/30 03:20:52;;;;;;;24.10;6.30;;;20.00;73.40;;;;;;4914526;28;129834;-89
2021/01/30 03:30:05;;;;;;;;;;;;;;;;;;;;;
2021/01/30 03:54:50;;;;;;;18.83;6.07;;;19.90;73.10;;;;;;5253196;22;103564;-82
2021/01/30 04:07:12;;;;;;;18.15;5.45;;;19.90;73.00;;;;;;4961355;22;103652;-82
2021/01/30 04:10:20;;;;;;;21.58;6.15;;;19.90;73.10;;;;;;4931016;28;104587;-83
2021/01/30 04:12:46;;;;;;;18.67;5.15;;;19.90;73.00;;;;;;4933608;28;101231;-85
2021/01/30 04:15:46;;;;;;;16.42;5.60;;;19.80;73.00;;;;;;4897910;28;101235;-83
2021/01/30 04:25:30;;;;;;;23.23;6.15;;;19.80;73.20;;;;;;4982467;22;102804;-88
2021/01/30 04:28:16;;;;;;;;;;;;;;;;;;;;;
2021/01/30 04:31:20;;;;;;;20.80;6.30;;;19.90;73.40;;;;;;4927741;28;130255;-90
2021/01/30 04:34:36;;;;;;;19.70;6.18;;;19.90;73.40;;;;;;4942745;28;102610;-87
2021/01/30 04:37:56;;;;;;;20.38;5.55;;;19.90;73.10;;;;;;4927152;28;101919;-88
2021/01/30 04:40:52;;;;;;;17.00;5.47;;;19.90;73.20;;;;;;4948883;28;100604;-89
2021/01/30 04:44:33;;;;;;;;;;;;;;;;;;;;;
2021/01/30 04:51:22;;;;;;;14.20;5.28;;;19.80;73.20;;;;;;4919638;28;100378;-89
2021/01/30 04:57:07;;;;;;;11.98;5.13;;;19.90;73.10;;;;;;4889823;28;103077;-89
2021/01/30 04:59:59;;;;;;;17.00;6.10;;;19.90;73.00;;;;;;4943669;28;102372;-89
2021/01/30 05:06:01;;;;;;;16.13;5.68;;;19.80;72.90;;;;;;4897360;28;100911;-89
2021/01/30 05:08:51;;;;;;;22.08;6.05;;;19.70;72.90;;;;;;4905282;28;103168;-88
2021/01/30 05:11:22;;;;;;;14.88;4.55;;;19.80;72.90;;;;;;4920061;28;102827;-88
2021/01/30 05:14:18;;;;;;;15.18;4.85;;;19.70;72.70;;;;;;4918781;28;101162;-88
2021/01/30 05:17:17;;;;;;;17.75;5.18;;;19.70;72.70;;;;;;4938827;28;100782;-89
2021/01/30 05:20:01;;;;;;;14.95;5.00;;;19.80;73.40;;;;;;4932024;28;101018;-89
2021/01/30 05:22:51;;;;;;;14.20;5.00;;;19.80;73.50;;;;;;4950799;28;102287;-88
2021/01/30 05:25:30;;;;;;;;;;;;;;;;;;;;;
2021/01/30 05:28:07;;;;;;;31.90;5.97;;;19.80;73.70;;;;;;4942574;28;109293;-89
2021/01/30 05:30:57;;;;;;;22.05;6.10;;;19.80;73.90;;;;;;4966289;28;103764;-89
2021/01/30 05:33:56;;;;;;;21.00;6.25;;;19.80;73.90;;;;;;4945724;28;100976;-89
2021/01/30 05:36:38;;;;;;;16.43;5.90;;;19.80;73.90;;;;;;4945614;28;101061;-90
2021/01/30 05:39:06;;;;;;;21.48;5.97;;;19.80;73.70;;;;;;4948987;28;101313;-88
2021/01/30 05:42:12;;;;;;;17.85;5.25;;;19.80;73.70;;;;;;4955346;28;103252;-88
2021/01/30 05:44:54;;;;;;;23.40;5.75;;;19.80;73.70;;;;;;4943729;28;103668;-88
2021/01/30 05:47:31;;;;;;;29.45;6.68;;;19.80;73.90;;;;;;4941349;28;100810;-89
2021/01/30 05:50:31;;;;;;;33.67;6.43;;;19.80;75.30;;;;;;4947626;28;101371;-89
2021/01/30 05:53:14;;;;;;;33.38;7.63;;;19.80;76.50;;;;;;4940617;28;101145;-89
2021/01/30 05:55:59;;;;;;;23.58;6.72;;;19.80;75.60;;;;;;4934794;28;102448;-89
2021/01/30 05:58:29;;;;;;;23.95;5.97;;;19.70;75.50;;;;;;4920181;28;100193;-88
2021/01/30 06:01:27;;;;;;;31.48;6.60;;;19.70;75.30;;;;;;4932137;28;100970;-89
2021/01/30 06:04:24;;;;;;;27.15;6.55;;;19.70;75.20;;;;;;4941982;28;103440;-89
2021/01/30 06:06:54;;;;;;;21.85;5.65;;;19.70;74.80;;;;;;4920186;28;101047;-89
2021/01/30 06:09:37;;;;;;;26.88;6.03;;;19.70;75.00;;;;;;4928917;28;100429;-90
2021/01/30 06:12:25;;;;;;;24.98;6.28;;;19.70;74.90;;;;;;4955508;28;101113;-89
2021/01/30 06:14:59;;;;;;;23.48;6.60;;;19.70;74.80;;;;;;4963402;28;103361;-90
2021/01/30 06:17:49;;;;;;;25.80;6.05;;;19.70;74.80;;;;;;4922506;28;102410;-90
2021/01/30 06:20:32;;;;;;;22.83;6.32;;;19.70;74.70;;;;;;4938253;28;100915;-89
2021/01/30 06:27:23;;;;;;;;;;;;;;;;;;;;;
2021/01/30 06:30:12;;;;;;;17.40;5.18;;;19.60;74.60;;;;;;4954757;28;130843;-91
2021/01/30 06:32:44;;;;;;;16.77;5.50;;;19.60;74.60;;;;;;4945377;28;101032;-89
2021/01/30 06:35:13;;;;;;;18.80;5.22;;;19.60;74.60;;;;;;4939283;28;101239;-90
2021/01/30 06:37:55;;;;;;;;;;;;;;;;;;;;;
2021/01/30 06:40:23;;;;;;;17.52;5.05;;;19.60;74.60;;;;;;4939752;28;129140;-91
2021/01/30 06:42:52;;;;;;;17.23;5.28;;;19.50;74.20;;;;;;4939567;28;100845;-90
2021/01/30 06:46:05;;;;;;;;;;;;;;;;;;;;;
2021/01/30 06:48:58;;;;;;;21.13;5.63;;;19.60;74.60;;;;;;4944092;28;130616;-89
2021/01/30 06:52:00;;;;;;;24.15;6.40;;;19.50;74.40;;;;;;4914992;28;100398;-89
2021/01/30 06:54:40;;;;;;;16.45;5.40;;;19.50;74.30;;;;;;4948772;28;100769;-89
2021/01/30 07:00:38;;;;;;;14.23;4.47;;;19.50;74.20;;;;;;4893936;28;102253;-90
2021/01/30 07:03:32;;;;;;;19.75;5.78;;;19.50;74.30;;;;;;4938185;28;101209;-91
2021/01/30 07:06:10;;;;;;;17.95;4.75;;;19.50;74.20;;;;;;4923691;28;101094;-91
2021/01/30 07:08:48;;;;;;;17.65;5.55;;;19.50;74.50;;;;;;4944363;28;101121;-90
2021/01/30 07:11:40;;;;;;;19.50;5.28;;;19.50;74.30;;;;;;4922750;28;103235;-92
2021/01/30 07:14:48;;;;;;;18.90;5.40;;;19.50;74.60;;;;;;4957400;28;102608;-93
2021/01/30 07:18:05;;;;;;;15.38;5.10;;;19.50;74.40;;;;;;4966271;28;100272;-92
2021/01/30 07:21:22;;;;;;;;;;;;;;;;;;;;;
2021/01/30 07:24:12;;;;;;;15.30;5.55;;;19.50;74.90;;;;;;4949303;28;131789;-91
2021/01/30 07:27:07;;;;;;;17.85;5.70;;;19.40;73.80;;;;;;4951144;28;101774;-92
2021/01/30 07:29:54;;;;;;;31.10;6.15;;;19.30;74.60;;;;;;4968461;28;100170;-90
2021/01/30 07:32:33;;;;;;;16.35;5.45;;;19.30;73.80;;;;;;4946054;28;101280;-87
2021/01/30 07:35:37;;;;;;;19.98;5.57;;;19.30;74.30;;;;;;4922377;28;104512;-89
2021/01/30 07:38:14;;;;;;;13.98;4.97;;;19.40;74.50;;;;;;4896839;28;103078;-88
2021/01/30 07:41:27;;;;;;;16.95;6.10;;;19.30;74.30;;;;;;4922871;28;100837;-92
2021/01/30 07:44:16;;;;;;;13.45;5.00;;;19.40;74.50;;;;;;4885383;28;100840;-91
2021/01/30 07:47:34;;;;;;;16.83;4.70;;;19.30;74.10;;;;;;4922617;28;103172;-93
2021/01/30 07:50:26;;;;;;;15.98;5.13;;;19.40;74.20;;;;;;4891594;28;102858;-93
2021/01/30 07:53:14;;;;;;;16.67;4.78;;;19.40;74.30;;;;;;4973462;22;100920;-83
2021/01/30 07:56:03;;;;;;;20.05;6.18;;;19.40;74.10;;;;;;4896297;28;101927;-83
2021/01/30 07:59:25;;;;;;;17.35;5.22;;;19.40;74.60;;;;;;4894688;28;101041;-83
2021/01/30 08:01:54;;;;;;;16.55;5.32;;;19.40;74.80;;;;;;4854411;29;101725;-83
2021/01/30 08:04:34;;;;;;;19.38;5.50;;;19.40;74.80;;;;;;4835637;29;100999;-83
2021/01/30 08:07:11;;;;;;;21.13;5.75;;;19.40;75.10;;;;;;4885325;28;101412;-83
2021/01/30 08:10:06;;;;;;;15.13;5.00;;;19.40;75.20;;;;;;4919752;28;101840;-81
2021/01/30 08:12:53;;;;;;;22.20;5.88;;;19.40;75.30;;;;;;4910347;28;113204;-83
2021/01/30 08:27:04;;;;;;;;;;;;;;;;;;;;;
2021/01/30 08:33:10;;;;;;;20.27;6.00;;;19.40;75.00;;;;;;4878009;28;101076;-83
2021/01/30 08:35:42;;;;;;;18.08;5.45;;;19.40;75.10;;;;;;4886717;28;103791;-83
2021/01/30 08:38:13;;;;;;;19.60;6.03;;;19.30;74.10;;;;;;4901729;28;102827;-84
2021/01/30 08:41:05;;;;;;;17.50;5.57;;;19.30;74.60;;;;;;4924782;28;100988;-83
2021/01/30 08:43:47;;;;;;;12.57;4.43;;;19.30;74.90;;;;;;4925418;28;101352;-84
2021/01/30 08:46:48;;;;;;;18.73;5.75;;;19.20;73.10;;;;;;4901141;28;104365;-84
2021/01/30 08:50:19;;;;;;;15.10;5.13;;;19.10;74.00;;;;;;4940318;28;102146;-82
2021/01/30 08:56:09;;;;;;;19.25;5.40;;;19.30;74.20;;;;;;4904730;28;102230;-83
2021/01/30 08:58:50;;;;;;;19.80;4.95;;;19.40;72.00;;;;;;4909408;28;105249;-83
2021/01/30 09:01:28;;;;;;;15.90;4.75;;;19.50;71.70;;;;;;4936799;28;101189;-84
2021/01/30 09:04:03;;;;;;;10.77;4.40;;;19.70;71.60;;;;;;4919950;28;101196;-83
2021/01/30 09:06:41;;;;;;;12.75;4.60;;;19.80;69.50;;;;;;4895581;28;101129;-81
2021/01/30 09:09:10;;;;;;;16.88;4.55;;;19.90;68.60;;;;;;4933579;28;101079;-82
2021/01/30 09:11:42;;;;;;;15.53;4.90;;;19.90;68.80;;;;;;4935479;28;109184;-82
2021/01/30 09:14:39;;;;;;;13.98;4.50;;;20.00;69.20;;;;;;4916705;28;100994;-80
2021/01/30 09:18:09;;;;;;;;;;;;;;;;;;;;;
2021/01/30 09:24:08;;;;;;;14.68;4.85;;;20.10;67.90;;;;;;4877786;28;102385;-84
2021/01/30 09:27:12;;;;;;;15.00;5.28;;;20.10;67.00;;;;;;4936330;28;101608;-83
2021/01/30 09:29:54;;;;;;;16.55;5.35;;;20.10;66.40;;;;;;4918306;28;101122;-84
2021/01/30 09:32:35;;;;;;;14.52;5.00;;;20.00;66.20;;;;;;4893462;28;102410;-83
2021/01/30 09:35:20;;;;;;;14.32;5.13;;;20.00;67.00;;;;;;4922113;28;101502;-82
2021/01/30 09:37:46;;;;;;;19.23;5.00;;;19.90;67.50;;;;;;4891415;28;101001;-83
2021/01/30 09:40:26;;;;;;;32.72;7.65;;;20.00;68.90;;;;;;4902153;28;101136;-83
2021/01/30 09:43:06;;;;;;;22.33;7.65;;;20.00;59.60;;;;;;4885634;28;101913;-81
2021/01/30 09:45:47;;;;;;;28.45;8.52;;;19.60;53.40;;;;;;4929964;28;102728;-81
2021/01/30 09:48:22;;;;;;;36.33;9.65;;;19.60;59.50;;;;;;4919164;28;101482;-82
2021/01/30 09:50:54;;;;;;;37.50;9.07;;;19.70;56.70;;;;;;4927393;28;101070;-81
2021/01/30 09:54:43;;;;;;;33.40;9.35;;;19.70;59.10;;;;;;4918272;28;103753;-82
2021/01/30 10:00:41;;;;;;;39.03;10.45;;;19.60;58.80;;;;;;4835038;29;100491;-82
2021/01/30 10:03:17;;;;;;;53.58;11.90;;;19.60;60.50;;;;;;4888322;28;101277;-83
2021/01/30 10:05:49;;;;;;;55.40;13.23;;;19.70;61.50;;;;;;4903414;28;104423;-80
2021/01/30 10:08:36;;;;;;;59.13;11.57;;;19.60;62.50;;;;;;4883687;28;103064;-80
2021/01/30 10:11:14;;;;;;;26.52;7.80;;;19.10;57.50;;;;;;4909930;28;101483;-80
2021/01/30 10:13:47;;;;;;;32.20;8.50;;;17.90;52.30;;;;;;4922291;28;101112;-75
2021/01/30 10:16:17;;;;;;;26.70;7.47;;;17.50;53.10;;;;;;4900895;28;104351;-78
2021/01/30 10:18:58;;;;;;;21.10;7.05;;;17.20;51.10;;;;;;4903937;28;103696;-79
2021/01/30 10:21:35;;;;;;;45.95;9.27;;;17.20;50.50;;;;;;4912318;28;100961;-80
2021/01/30 10:24:22;;;;;;;37.22;9.32;;;17.50;54.70;;;;;;4925728;28;100938;-78
2021/01/30 10:26:49;;;;;;;32.92;8.02;;;18.20;55.20;;;;;;4943821;28;108871;-79
2021/01/30 10:29:17;;;;;;;39.47;8.70;;;18.60;54.80;;;;;;4942369;28;101903;-79
2021/01/30 10:31:44;;;;;;;44.65;9.10;;;18.90;54.80;;;;;;4903618;28;101058;-79
2021/01/30 10:37:56;;;;;;;42.58;9.25;;;19.40;55.70;;;;;;4905831;28;101843;-79
2021/01/30 10:40:49;;;;;;;31.48;8.10;;;19.50;55.90;;;;;;4913759;28;101114;-78
2021/01/30 10:43:34;;;;;;;37.70;8.32;;;19.50;56.20;;;;;;4924140;28;101274;-78
2021/01/30 10:46:01;;;;;;;31.65;7.28;;;19.60;57.00;;;;;;4922437;28;100988;-78
2021/01/30 10:48:29;;;;;;;44.70;7.57;;;19.70;57.00;;;;;;4924916;28;101727;-79
2021/01/30 10:51:06;;;;;;;34.35;8.40;;;19.70;57.10;;;;;;4924220;28;100962;-79
2021/01/30 10:53:33;;;;;;;30.85;8.63;;;19.80;57.20;;;;;;4924651;28;101133;-78
2021/01/30 10:55:59;;;;;;;40.67;7.97;;;19.80;57.50;;;;;;4919836;28;101286;-77
2021/01/30 10:58:24;;;;;;;44.70;8.35;;;19.80;57.50;;;;;;4921736;28;100950;-79
2021/01/30 11:01:03;;;;;;;29.88;7.68;;;19.70;57.50;;;;;;4924591;28;102754;-79
2021/01/30 11:03:52;;;;;;;32.85;7.53;;;19.80;57.70;;;;;;4910807;28;100973;-79
2021/01/30 11:06:29;;;;;;;35.47;7.53;;;19.90;58.30;;;;;;4926472;28;100523;-79
2021/01/30 11:08:56;;;;;;;46.83;8.30;;;19.90;58.30;;;;;;4924026;28;103753;-79
2021/01/30 11:11:31;;;;;;;40.72;8.52;;;19.90;59.10;;;;;;4908682;28;102835;-78
2021/01/30 11:14:02;;;;;;;35.28;8.48;;;19.90;58.40;;;;;;4922009;28;101076;-79
2021/01/30 11:16:38;;;;;;;36.90;7.82;;;19.90;58.50;;;;;;4891502;28;101300;-79
2021/01/30 11:19:28;;;;;;;28.15;6.85;;;19.90;58.60;;;;;;4892889;28;105024;-79
2021/01/30 11:22:23;;;;;;;36.10;7.88;;;19.80;58.10;;;;;;4910866;28;101364;-79
2021/01/30 11:25:04;;;;;;;36.03;7.80;;;19.80;58.70;;;;;;4904973;28;100853;-79
2021/01/30 11:27:36;;;;;;;31.88;7.72;;;19.70;58.80;;;;;;4931513;28;100958;-78
2021/01/30 11:30:18;;;;;;;29.67;7.53;;;19.80;58.80;;;;;;4923626;28;105058;-79
2021/01/30 11:32:51;;;;;;;45.88;8.00;;;19.70;59.20;;;;;;4939079;28;101704;-80
2021/01/30 11:35:25;;;;;;;41.53;8.07;;;19.70;60.20;;;;;;4924393;28;100987;-78
2021/01/30 11:37:51;;;;;;;47.33;9.32;;;19.70;59.50;;;;;;4923088;28;101077;-78
2021/01/30 11:40:17;;;;;;;59.05;10.15;;;19.60;60.00;;;;;;4942354;28;106741;-79
2021/01/30 11:42:44;;;;;;;42.85;10.18;;;19.60;59.80;;;;;;4942825;28;100891;-78
2021/01/30 11:45:10;;;;;;;49.08;9.23;;;19.70;59.50;;;;;;4921392;28;101053;-79
2021/01/30 11:47:35;;;;;;;59.92;11.05;;;19.60;60.00;;;;;;4904791;28;101071;-78
2021/01/30 11:50:01;;;;;;;69.28;11.48;;;19.60;60.00;;;;;;4915176;28;130599;-79
2021/01/30 11:52:27;;;;;;;49.17;10.35;;;19.70;60.40;;;;;;4902596;28;102623;-79
2021/01/30 11:54:53;;;;;;;59.05;11.80;;;19.50;60.60;;;;;;4902211;28;100983;-78
2021/01/30 11:57:19;;;;;;;61.03;13.35;;;19.60;60.20;;;;;;4934000;28;101041;-79
2021/01/30 11:59:49;;;;;;;46.50;11.88;;;19.60;61.70;;;;;;4935508;28;101829;-80
2021/01/30 12:05:52;;;;;;;62.70;11.52;;;19.50;61.20;;;;;;4922134;28;101647;-79
2021/01/30 12:08:25;;;;;;;66.05;11.50;;;19.40;61.30;;;;;;4912109;28;102834;-79
2021/01/30 12:19:16;;;;;;;53.25;10.02;;;19.30;61.90;;;;;;4953676;23;100836;-78
2021/01/30 12:22:30;;;;;;;58.53;12.25;;;19.30;62.30;;;;;;4886068;28;101303;-82
2021/01/30 12:25:12;;;;;;;52.58;13.18;;;19.40;61.30;;;;;;4907070;28;103157;-79
2021/01/30 12:27:40;;;;;;;56.30;13.75;;;19.30;61.20;;;;;;4931719;28;101030;-80
2021/01/30 12:30:13;;;;;;;60.38;12.00;;;19.40;62.00;;;;;;4898046;28;100810;-81
2021/01/30 12:36:12;;;;;;;43.75;11.52;;;19.50;63.10;;;;;;4950039;22;101273;-82
2021/01/30 12:38:38;;;;;;;61.13;12.95;;;19.50;61.80;;;;;;4908139;28;100851;-82
2021/01/30 12:41:06;;;;;;;85.72;14.93;;;19.50;62.60;;;;;;4922171;28;100270;-82
2021/01/30 12:43:31;;;;;;;71.72;14.68;;;19.50;63.00;;;;;;4901815;28;100805;-84
2021/01/30 12:45:57;;;;;;;68.55;13.23;;;19.40;62.90;;;;;;4903413;28;103035;-81
2021/01/30 12:48:23;;;;;;;74.15;15.75;;;19.40;62.60;;;;;;4917018;28;101128;-81
2021/01/30 12:50:50;;;;;;;75.43;15.25;;;19.40;63.40;;;;;;4926406;28;101326;-81
2021/01/30 12:53:16;;;;;;;65.95;13.65;;;19.40;63.60;;;;;;4924306;28;101079;-80
2021/01/30 12:55:41;;;;;;;64.72;13.45;;;19.30;63.90;;;;;;4938778;28;100931;-82
2021/01/30 12:58:18;;;;;;;59.72;13.80;;;19.30;62.90;;;;;;4936939;28;101184;-82
2021/01/30 13:00:43;;;;;;;71.82;14.77;;;19.30;63.60;;;;;;4922823;28;101017;-82
2021/01/30 13:03:09;;;;;;;75.07;13.98;;;19.30;64.10;;;;;;4907607;28;100906;-85
2021/01/30 13:05:35;;;;;;;64.00;13.90;;;19.40;64.10;;;;;;4905901;28;101137;-84
2021/01/30 13:08:13;;;;;;;65.82;14.30;;;19.30;64.00;;;;;;4906982;28;100991;-80
2021/01/30 13:10:38;;;;;;;50.40;13.20;;;19.30;63.50;;;;;;4924833;28;100948;-82
2021/01/30 13:13:04;;;;;;;68.05;13.95;;;19.30;62.80;;;;;;4907383;28;101105;-81
2021/01/30 13:15:30;;;;;;;70.32;13.50;;;19.40;63.40;;;;;;4910668;28;101677;-81
2021/01/30 13:17:56;;;;;;;53.35;11.93;;;19.50;62.90;;;;;;4913219;28;100965;-82
2021/01/30 13:20:22;;;;;;;67.00;11.93;;;19.70;62.50;;;;;;4931017;28;100802;-83
2021/01/30 13:22:47;;;;;;;56.63;12.60;;;19.80;62.10;;;;;;4928556;28;101529;-83
2021/01/30 13:25:14;;;;;;;48.63;11.27;;;19.80;62.50;;;;;;4927582;28;101836;-83
2021/01/30 13:28:15;;;;;;;48.92;10.77;;;19.90;61.20;;;;;;4930877;28;100753;-84
2021/01/30 13:30:41;;;;;;;47.00;9.93;;;19.90;61.50;;;;;;4955072;28;101042;-86
2021/01/30 13:33:07;;;;;;;45.90;10.23;;;19.90;62.40;;;;;;4945427;28;103384;-83
2021/01/30 13:35:52;;;;;;;53.00;10.48;;;19.90;62.50;;;;;;4911145;28;102651;-83
2021/01/30 13:38:18;;;;;;;50.30;11.77;;;19.90;62.70;;;;;;4914354;28;101479;-84
2021/01/30 13:40:48;;;;;;;39.97;9.93;;;19.90;62.80;;;;;;4941580;28;100899;-84
2021/01/30 13:43:14;;;;;;;;;;;19.80;63.20;;;;;;4937022;28;101088;-84
2021/01/30 13:45:40;;;;;;;45.22;10.52;;;19.80;62.40;;;;;;4935020;28;101408;-84
2021/01/30 13:48:06;;;;;;;42.80;10.90;;;19.80;63.30;;;;;;4897906;28;101007;-84
2021/01/30 13:50:35;;;;;;;55.08;11.07;;;19.80;63.00;;;;;;4923627;28;101717;-87
2021/01/30 13:53:02;;;;;;;45.47;10.38;;;19.80;64.50;;;;;;4939023;28;101855;-85
2021/01/30 13:58:53;;;;;;;70.43;13.10;;;19.70;65.80;;;;;;4958618;28;101111;-85
2021/01/30 14:14:48;;;;;;;58.72;13.23;;;19.80;66.00;;;;;;5036012;27;796555;-83
2021/01/30 14:17:13;;;;;;;60.05;13.73;;;19.70;67.20;;;;;;5025081;28;100659;-80
2021/01/30 14:19:39;;;;;;;63.03;12.65;;;19.80;66.80;;;;;;5043238;27;112742;-78
2021/01/30 14:22:05;;;;;;;66.15;11.27;;;19.80;66.80;;;;;;5027071;22;103535;-80
2021/01/30 14:24:30;;;;;;;74.90;13.98;;;19.70;67.40;;;;;;4934446;28;129175;-83
2021/01/30 14:26:58;;;;;;;72.25;14.90;;;19.60;67.40;;;;;;4954718;28;111944;-81
2021/01/30 14:29:23;;;;;;;69.28;13.93;;;19.60;67.50;;;;;;4983535;28;100587;-82
2021/01/30 14:31:49;;;;;;;62.35;13.18;;;19.60;67.70;;;;;;4954203;28;102052;-80
2021/01/30 14:34:15;;;;;;;64.85;14.02;;;19.60;67.90;;;;;;4935805;28;124389;-83
2021/01/30 14:36:40;;;;;;;70.85;13.73;;;19.50;67.40;;;;;;4926362;28;100835;-81
2021/01/30 14:39:08;;;;;;;74.47;14.32;;;19.50;67.50;;;;;;4924551;28;100972;-81
2021/01/30 14:41:35;;;;;;;68.78;12.55;;;19.50;66.90;;;;;;4975717;28;102367;-80
2021/01/30 14:44:01;;;;;;;73.28;13.40;;;19.50;66.90;;;;;;4942682;28;103773;-79
2021/01/30 14:46:27;;;;;;;79.18;16.08;;;19.50;67.40;;;;;;4961168;28;100912;-81
2021/01/30 14:48:53;;;;;;;69.38;13.43;;;19.60;69.00;;;;;;4939145;28;114539;-81
2021/01/30 14:51:19;;;;;;;77.28;13.52;;;19.60;67.80;;;;;;4953595;28;103292;-80
2021/01/30 14:53:44;;;;;;;81.30;14.18;;;19.50;67.70;;;;;;4937298;28;100495;-80
2021/01/30 14:56:10;;;;;;;75.80;13.75;;;19.50;68.40;;;;;;4952182;28;101056;-82
2021/01/30 14:58:35;;;;;;;86.43;15.70;;;19.50;69.50;;;;;;4940312;28;100974;-83
2021/01/30 15:01:01;;;;;;;72.00;14.75;;;19.60;71.90;;;;;;4930474;28;112228;-83
2021/01/30 15:03:27;;;;;;;83.60;15.80;;;19.60;73.60;;;;;;4946018;28;101909;-80
2021/01/30 15:05:53;;;;;;;95.93;16.75;;;19.60;75.60;;;;;;4925821;28;100912;-79
2021/01/30 15:08:18;;;;;;;88.30;16.48;;;19.60;75.70;;;;;;4942543;28;101288;-81
2021/01/30 15:10:44;;;;;;;83.22;14.50;;;19.60;75.60;;;;;;4929196;28;130702;-80
2021/01/30 15:13:10;;;;;;;72.75;14.90;;;19.60;75.50;;;;;;4924619;28;115020;-80
2021/01/30 15:15:37;;;;;;;81.28;15.88;;;19.60;76.00;;;;;;4928100;28;100962;-79
2021/01/30 15:18:03;;;;;;;87.82;15.85;;;19.60;76.00;;;;;;4930635;28;100846;-79
2021/01/30 15:20:33;;;;;;;82.18;16.33;;;19.60;76.00;;;;;;4926541;28;102983;-80
2021/01/30 15:22:58;;;;;;;79.65;15.55;;;19.60;75.00;;;;;;4927003;28;103656;-81
2021/01/30 15:25:24;;;;;;;92.55;16.63;;;19.60;75.10;;;;;;4938838;28;112924;-80
2021/01/30 15:27:49;;;;;;;92.85;17.38;;;19.60;74.70;;;;;;4926014;28;102971;-80
2021/01/30 15:30:15;;;;;;;88.05;15.98;;;19.60;74.60;;;;;;4949304;28;104997;-80
2021/01/30 15:32:41;;;;;;;83.10;16.35;;;19.50;74.10;;;;;;4928758;28;105743;-79
2021/01/30 15:35:07;;;;;;;90.10;15.25;;;19.60;74.20;;;;;;4936414;28;101456;-80
2021/01/30 15:37:42;;;;;;;78.78;15.02;;;19.50;73.90;;;;;;4930490;28;101287;-80
2021/01/30 15:40:10;;;;;;;66.32;14.77;;;19.40;73.70;;;;;;4913853;28;100959;-82
2021/01/30 15:42:37;;;;;;;61.13;14.20;;;19.50;73.70;;;;;;4916556;28;103266;-82
2021/01/30 15:45:08;;;;;;;68.15;14.70;;;19.50;73.80;;;;;;4954333;28;111314;-81
2021/01/30 15:47:34;;;;;;;86.07;14.60;;;19.50;73.60;;;;;;4960149;28;101443;-82
2021/01/30 15:50:00;;;;;;;74.00;15.07;;;19.50;74.10;;;;;;4944102;28;110183;-82
2021/01/30 15:52:28;;;;;;;88.40;15.68;;;19.40;74.00;;;;;;4909545;28;103716;-83
2021/01/30 15:54:54;;;;;;;67.38;14.52;;;19.40;73.40;;;;;;4911214;28;100886;-83
2021/01/30 15:57:30;;;;;;;67.97;13.73;;;19.40;73.70;;;;;;4910006;28;101627;-87
2021/01/30 16:00:11;;;;;;;53.92;11.00;;;19.10;66.20;;;;;;4932429;28;101191;-81
2021/01/30 16:02:46;;;;;;;30.15;7.72;;;18.40;60.30;;;;;;4928722;28;101168;-80
2021/01/30 16:12:22;;;;;;;48.00;7.13;;;17.70;58.10;;;;;;4922525;28;101566;-86
2021/01/30 16:14:56;;;;;;;28.33;7.20;;;18.50;59.20;;;;;;4942823;28;103489;-86
2021/01/30 16:17:42;;;;;;;29.05;7.10;;;19.10;59.10;;;;;;4942835;28;101127;-83
2021/01/30 16:20:09;;;;;;;32.70;5.93;;;19.50;59.20;;;;;;4943928;28;101040;-81
2021/01/30 16:26:30;;;;;;;25.00;6.00;;;20.20;59.00;;;;;;4949363;28;101152;-89
2021/01/30 16:29:40;;;;;;;;;;;;;;;;;;;;;
2021/01/30 16:32:08;;;;;;;27.23;5.78;;;20.50;59.00;;;;;;4950635;28;109636;-83
2021/01/30 16:34:34;;;;;;;27.50;5.90;;;20.60;59.50;;;;;;4937180;28;102046;-87
2021/01/30 16:37:05;;;;;;;24.60;5.95;;;20.70;59.20;;;;;;4936481;28;100888;-86
2021/01/30 16:39:31;;;;;;;22.35;5.50;;;20.80;59.40;;;;;;4958107;28;100976;-86
2021/01/30 16:41:57;;;;;;;18.75;5.20;;;20.90;58.90;;;;;;4976094;28;101071;-89
2021/01/30 16:44:24;;;;;;;25.85;5.47;;;20.90;59.40;;;;;;4955778;28;103172;-85
2021/01/30 16:46:49;;;;;;;17.85;5.28;;;20.90;59.30;;;;;;4957897;28;101033;-87
2021/01/30 16:49:15;;;;;;;24.70;5.72;;;21.00;59.30;;;;;;4957371;28;100415;-86
2021/01/30 16:51:41;;;;;;;22.42;5.30;;;21.10;59.50;;;;;;4978049;28;101340;-85
2021/01/30 16:54:09;;;;;;;22.00;5.82;;;21.10;59.70;;;;;;4981334;28;102155;-85
2021/01/30 16:56:35;;;;;;;25.23;5.30;;;21.10;60.00;;;;;;4960828;28;103281;-87